• Join FlightAware (Why Join?)
  • Login
  • US Flag 
01:19AM EST


 

Airport Tracker/Info


-or-


 

Live Flight TrackerFlight Track Log ✈ UAL312 ✈ 29-Apr-2012 ✈ KIAD - KBDL

Flight Track Log - Related Links

Times and Time Zones

All times are in EDT time to prevent confusion due to time zone crossing. See the UAL312 flight status page for this flight to view local times or setup timezone preferences in your user account.

Time Position Orientation Groundspeed Altitude Reporting Facility
EDT Latitude Longitude Course Direction KTS MPH feet Rate Location/Type
05:13PM 38.9833 -77.1664 293° West  Level FlightAware Approximate
05:14PM 39.0833 -77.4667 360° North 247 284 6,800  Level Potomac TRACON
05:15PM 39.1667 -77.4667 90° East 269 310 9,800 1,500 Climbing Potomac TRACON
05:16PM 39.1667 -77.3667 109° East 332 382 10,000 900 Climbing Potomac TRACON
05:18PM 39.1056 -77.1431 112° Southeast 384 442 12,400 1,560 Climbing Washington Center
05:19PM 39.0594 -76.9950 92° East 413 475 14,500 2,160 Climbing Washington Center
05:20PM 39.0550 -76.8425 77° East 420 483 16,800 2,100 Climbing Washington Center
05:21PM 39.0814 -76.6906 78° East 420 483 18,800 1,860 Climbing Washington Center
05:22PM 39.1078 -76.5278 79° East 437 503 20,600 1,620 Climbing Washington Center
05:23PM 39.1317 -76.3650 79° East 453 521 22,100 1,200 Climbing Washington Center
05:24PM 39.1578 -76.1967 82° East 472 543 23,000 360 Climbing Washington Center
05:25PM 39.1772 -76.0200 75° East 482 555 22,900 540 Descending Washington Center
05:26PM 39.2111 -75.8594 44° Northeast 482 555 24,100 1,320 Climbing Washington Center
05:27PM 39.3050 -75.7417 45° Northeast 449 517 25,600 960 Climbing Washington Center
05:29PM 39.4847 -75.5078 45° Northeast 501 577 27,000 420 Climbing New York Center
05:30PM 39.5728 -75.3925 46° Northeast 462 532 27,000  Level New York Center
05:31PM 39.6606 -75.2742 49° Northeast 455 524 27,000  Level New York Center
05:32PM 39.7444 -75.1500 47° Northeast 450 518 27,000  Level New York Center
05:33PM 39.8325 -75.0258 46° Northeast 455 524 27,000  Level New York Center
05:34PM 39.9181 -74.9092 48° Northeast 455 524 27,000  Level New York Center
05:35PM 40.0103 -74.7736 49° Northeast 449 517 27,000  Level New York Center
05:36PM 40.0914 -74.6536 56° Northeast 437 503 27,000  Level New York Center
05:37PM 40.1603 -74.5217 55° Northeast 437 503 27,000 -60 Level New York Center
05:38PM 40.2333 -74.3869 55° Northeast 442 509 26,900 -180 Descending New York Center
05:39PM 40.3061 -74.2519 56° Northeast 447 514 26,700 -360 Descending New York Center
05:40PM 40.3789 -74.1086 55° Northeast 453 521 26,200 -540 Descending New York Center
05:41PM 40.4517 -73.9731 56° Northeast 453 521 25,700 -540 Descending New York Center
05:42PM 40.5239 -73.8344 58° Northeast 453 521 25,200 -960 Descending New York Center
05:43PM 40.5922 -73.6925 55° Northeast 453 521 23,800 -1,440 Descending New York Center
05:44PM 40.6622 -73.5589 53° Northeast 448 516 22,300 -1,500 Descending New York Center
05:46PM 40.8261 -73.2656 40° Northeast 414 476 18,900 -1,020 Descending Boston Center
05:47PM 40.9058 -73.1761 42° Northeast 386 444 19,000 -240 Climbing Boston Center
05:48PM 40.9836 -73.0833 41° Northeast 374 430 18,500 -660 Descending Boston Center
05:49PM 41.0611 -72.9933 41° Northeast 374 430 17,700 -1,080 Descending Boston Center
05:50PM 41.1364 -72.9058 41° Northeast 363 418 16,400 -1,920 Descending Boston Center
05:51PM 41.1972 -72.8344 37° Northeast 341 392 14,100 -2,520 Descending Boston Center
05:52PM 41.2808 -72.7494 24° Northeast 339 390 11,400 -1,620 Descending Boston Center
05:53PM 41.3497 -72.7083 353° North 288 331 10,900 -720 Descending Boston Center
05:54PM 41.4206 -72.7197 352° North 255 293 10,000 -1,140 Descending Boston Center
05:55PM 41.4956 -72.7339 27° Northeast 252 290 8,700 -1,380 Descending Boston Center
05:56PM 41.5603 -72.6897 32° Northeast 272 313 7,200 -1,440 Descending Boston Center
05:57PM 41.6228 -72.6372 31° Northeast 266 306 5,800 -1,440 Descending Boston Center
05:58PM 41.6875 -72.5847 32° Northeast 265 305 4,300 -1,500 Descending Boston Center
05:59PM 41.7397 -72.5403 10° North 255 293 2,800 -900 Descending Boston Center
06:00PM 41.8128 -72.5236 10° North 229 264 2,500 -300 Descending Boston Center